Data for 10/08/2015

Time Sea-Level Adjusted Pressure Absolute Pressure Temperature Relative Humidity Dew Point   
(mb) (inHg) (mb) (inHg) (C) (F) (%) (C) (F)
00:05 1024 30.24 854 25.22 10.1 50.2 84 7.5 45.6
00:10 1025 30.27 854 25.22 10.1 50.2 85 7.7 45.9
00:15 1025 30.27 854 25.22 10 50.1 86 7.9 46.1
00:20 1025 30.27 854 25.22 10 49.9 87 7.8 46.1
00:25 1025 30.27 854 25.22 9.9 49.9 86 7.8 46
00:30 1024 30.24 854 25.22 10 50.1 86 7.7 45.9
00:35 1024 30.24 854 25.22 10 50 86 7.8 46.1
00:40 1024 30.24 854 25.22 10 50 84 7.5 45.5
00:45 1024 30.24 854 25.22 10 50 86 7.8 46
00:50 1024 30.24 854 25.22 9.9 49.9 87 7.9 46.2
00:55 1024 30.24 854 25.22 9.9 49.7 87 7.8 46.1
01:00 1024 30.24 854 25.22 9.9 49.8 86 7.7 45.9
01:05 1024 30.24 853 25.19 10 50 86 7.7 45.9
01:10 1024 30.24 853 25.19 10.1 50.2 86 7.9 46.2
01:15 1024 30.24 853 25.19 10.2 50.3 82 7.3 45.1
01:20 1024 30.24 853 25.19 10.5 50.8 82 7.6 45.7
01:25 1024 30.24 854 25.22 10.5 50.9 83 7.7 45.8
01:30 1024 30.24 853 25.19 10.5 51 82 7.6 45.6
01:35 1024 30.24 853 25.19 10.5 50.8 84 7.9 46.2
01:40 1024 30.24 854 25.22 10.2 50.4 86 7.9 46.3
01:45 1024 30.24 853 25.19 10.2 50.4 86 7.9 46.3
01:50 1024 30.24 853 25.19 10.2 50.3 86 7.9 46.3
01:55 1024 30.24 853 25.19 10.2 50.3 86 7.9 46.2
02:00 1024 30.24 854 25.22 10.2 50.3 86 7.9 46.3
02:05 1024 30.24 854 25.22 10.2 50.3 86 8 46.4
02:10 1024 30.24 853 25.19 10.1 50.1 87 8 46.4
02:15 1024 30.24 853 25.19 10 50 86 7.8 46.1
02:20 1024 30.24 853 25.19 10.2 50.3 85 7.7 45.9
02:25 1024 30.24 854 25.22 10.3 50.5 84 7.8 46
02:30 1024 30.24 854 25.22 10.3 50.6 84 7.7 45.9
02:35 1025 30.27 854 25.22 10.4 50.8 83 7.7 45.8
02:40 1025 30.27 854 25.22 10.5 50.9 83 7.7 45.9
02:45 1025 30.27 854 25.22 10.5 50.9 83 7.7 45.9
02:50 1025 30.27 854 25.22 10.6 51 83 7.7 45.9
02:55 1025 30.27 854 25.22 10.7 51.2 81 7.6 45.7
03:00 1025 30.27 854 25.22 10.8 51.4 81 7.7 45.9
03:05 1025 30.27 854 25.22 10.8 51.5 81 7.7 45.9
03:10 1025 30.27 854 25.22 10.7 51.2 84 8.1 46.5
03:15 1025 30.27 854 25.22 10.5 50.9 85 8.1 46.6
03:20 1025 30.27 854 25.22 10.5 50.9 84 8 46.4
03:25 1025 30.27 854 25.22 10.6 51.1 84 8 46.4
03:30 1025 30.27 854 25.22 10.7 51.3 84 8.1 46.7
03:35 1025 30.27 854 25.22 10.7 51.3 84 8.2 46.7
03:40 1025 30.27 854 25.22 10.6 51 85 8.1 46.6
03:45 1025 30.27 854 25.22 10.6 51 85 8.1 46.6
03:50 1025 30.27 854 25.22 10.5 50.9 86 8.3 46.9
03:55 1025 30.27 854 25.22 10.4 50.7 87 8.4 47.1
04:00 1025 30.27 854 25.22 10.2 50.4 88 8.4 47.1
04:05 1025 30.27 854 25.22 10.2 50.3 88 8.3 47
04:10 1025 30.27 854 25.22 10.2 50.4 87 8.2 46.8
04:15 1025 30.27 854 25.22 10.3 50.6 87 8.2 46.7
04:20 1025 30.27 854 25.22 10.4 50.7 87 8.3 46.9
04:25 1025 30.27 854 25.22 10.3 50.6 88 8.4 47.1
04:30 1025 30.27 854 25.22 10.2 50.4 88 8.4 47.2
04:35 1025 30.27 854 25.22 10.3 50.5 87 8.3 46.9
04:40 1025 30.27 854 25.22 10.5 50.9 86 8.4 47.1
04:45 1025 30.27 854 25.22 10.7 51.2 85 8.3 47
04:50 1025 30.27 854 25.22 10.9 51.6 84 8.2 46.8
04:55 1025 30.27 855 25.25 11 51.9 82 8.2 46.7
05:00 1025 30.27 855 25.25 11.1 52 83 8.4 47.2
05:05 1025 30.27 855 25.25 11 51.9 84 8.5 47.3
05:10 1025 30.27 855 25.25 11 51.8 84 8.5 47.2
05:15 1025 30.27 855 25.25 11 51.9 84 8.4 47.1
05:20 1025 30.27 855 25.25 11.2 52.2 83 8.4 47.1
05:25 1026 30.3 855 25.25 11.3 52.3 84 8.7 47.6
05:30 1026 30.3 855 25.25 11 51.8 86 8.7 47.7
05:35 1026 30.3 855 25.25 10.8 51.4 87 8.6 47.5
05:40 1026 30.3 855 25.25 10.7 51.2 88 8.7 47.6
05:45 1026 30.3 855 25.25 10.5 51 88 8.6 47.5
05:50 1026 30.3 855 25.25 10.6 51.1 88 8.7 47.6
05:55 1026 30.3 855 25.25 10.7 51.3 87 8.7 47.7
06:00 1026 30.3 855 25.25 10.9 51.5 87 8.7 47.7
06:05 1026 30.3 855 25.25 11 51.7 85 8.5 47.4
06:10 1026 30.3 855 25.25 11.1 52 86 8.8 47.8
06:15 1026 30.3 855 25.25 11.2 52.1 86 9 48.1
06:20 1026 30.3 855 25.25 11.1 52 87 9 48.2
06:25 1026 30.3 855 25.25 11.1 51.9 87 8.9 48.1
06:30 1026 30.3 856 25.28 11 51.8 86 8.8 47.8
06:35 1026 30.3 856 25.28 11.1 51.9 87 8.9 48.1
06:40 1026 30.3 856 25.28 11.1 52 87 9 48.3
06:45 1026 30.3 856 25.28 10.9 51.6 88 8.9 48.1
06:50 1026 30.3 856 25.28 10.7 51.2 89 8.9 48
06:55 1026 30.3 856 25.28 10.5 50.9 89 8.7 47.7
07:00 1026 30.3 856 25.28 10.5 50.9 89 8.8 47.9
07:05 1026 30.3 856 25.28 10.6 51.1 88 8.7 47.7
07:10 1027 30.33 856 25.28 10.8 51.4 88 8.8 47.8
07:15 1027 30.33 856 25.28 10.6 51.1 89 8.8 47.9
07:20 1027 30.33 856 25.28 10.7 51.2 89 8.9 48
07:25 1027 30.33 856 25.28 10.7 51.3 89 8.9 48.1
07:30 1027 30.33 856 25.28 10.9 51.5 88 9 48.2
07:35 1027 30.33 856 25.28 11 51.8 88 9 48.2
07:40 1027 30.33 856 25.28 11.1 52.1 86 8.8 47.9
07:45 1027 30.33 856 25.28 11.3 52.3 87 9.2 48.5
07:50 1027 30.33 856 25.28 11.1 52 87 9.1 48.4
07:55 1027 30.33 856 25.28 11.2 52.2 88 9.2 48.6
08:00 1027 30.33 856 25.28 11.3 52.4 86 9 48.2
08:05 1027 30.33 856 25.28 11.5 52.6 85 9 48.2
08:10 1027 30.33 856 25.28 11.5 52.8 85 9.1 48.5
08:15 1027 30.33 856 25.28 11.7 53 86 9.4 49
08:20 1027 30.33 856 25.28 11.8 53.2 85 9.3 48.8
08:25 1027 30.33 856 25.28 11.9 53.4 82 8.9 47.9
08:30 1027 30.33 856 25.28 11.9 53.5 82 8.9 48.1
08:35 1027 30.33 857 25.31 12.1 53.7 80 8.7 47.6
08:40 1027 30.33 857 25.31 12.2 53.9 80 8.8 47.8
08:45 1027 30.33 857 25.31 12.3 54.1 79 8.8 47.9
08:50 1027 30.33 857 25.31 12.4 54.4 77 8.5 47.4
08:55 1027 30.33 857 25.31 12.5 54.4 76 8.3 47
09:00 1027 30.33 857 25.31 12.5 54.4 75 8.1 46.6
09:05 1027 30.33 857 25.31 12.5 54.6 77 8.7 47.6
09:10 1027 30.33 857 25.31 12.8 55 73 8.2 46.7
09:15 1027 30.33 857 25.31 12.8 55.1 75 8.5 47.3
09:20 1028 30.36 857 25.31 13 55.4 73 8.3 46.9
09:25 1028 30.36 857 25.31 13.2 55.7 71 8.2 46.7
09:30 1028 30.36 857 25.31 13.4 56 71 8.3 46.9
09:35 1028 30.36 857 25.31 13.5 56.3 71 8.3 47
09:40 1028 30.36 857 25.31 13.7 56.7 72 8.7 47.6
09:45 1028 30.36 857 25.31 13.8 56.9 70 8.5 47.4
09:50 1028 30.36 857 25.31 13.8 56.9 69 8.3 46.9
09:55 1028 30.36 857 25.31 13.5 56.2 73 8.8 47.9
10:00 1028 30.36 857 25.31 13.7 56.6 71 8.6 47.5
10:05 1028 30.36 857 25.31 13.9 56.9 71 8.7 47.7
10:10 1028 30.36 857 25.31 13.9 57.1 70 8.5 47.4
10:15 1028 30.36 857 25.31 13.9 57.1 71 8.8 47.8
10:20 1028 30.36 857 25.31 14 57.3 71 8.9 48
10:25 1028 30.36 857 25.31 14.4 58 68 8.7 47.7
10:30 1028 30.36 857 25.31 14.5 58.1 71 9.3 48.7
10:35 1028 30.36 857 25.31 13.7 56.7 73 9 48.3
10:40 1028 30.36 857 25.31 13.8 56.8 73 9.1 48.4
10:45 1028 30.36 857 25.31 14.6 58.3 68 8.9 48
10:50 1028 30.36 857 25.31 14.9 58.8 66 8.6 47.5
10:55 1028 30.36 857 25.31 15.4 59.6 64 8.6 47.5
11:00 1028 30.36 857 25.31 15.8 60.5 60 8.1 46.6
11:05 1028 30.36 857 25.31 16.4 61.5 59 8.4 47.1
11:10 1028 30.36 857 25.31 16.8 62.2 56 8.2 46.7
11:15 1028 30.36 857 25.31 17.1 62.8 53 7.7 45.8
11:20 1028 30.36 857 25.31 17.4 63.3 54 8 46.4
11:25 1028 30.36 857 25.31 17.3 63.2 52 7.6 45.6
11:30 1028 30.36 857 25.31 17.2 63 53 7.6 45.7
11:35 1028 30.36 857 25.31 16.5 61.7 54 7.2 45
11:40 1028 30.36 857 25.31 17.3 63.1 52 7.5 45.4
11:45 1027 30.33 857 25.31 17.3 63.1 53 7.8 46.1
11:50 1028 30.36 857 25.31 16.8 62.2 55 7.7 45.9
11:55 1028 30.36 857 25.31 17.3 63.2 52 7.3 45.2
12:00 1028 30.36 857 25.31 17.4 63.4 53 8 46.4
12:05 1027 30.33 857 25.31 17.8 64 50 7.4 45.3
12:10 1027 30.33 857 25.31 18.1 64.5 49 7.3 45.1
12:15 1027 30.33 857 25.31 18.1 64.6 51 7.9 46.1
12:20 1027 30.33 857 25.31 18 64.5 50 7.6 45.8
12:25 1027 30.33 857 25.31 18 64.4 52 8 46.5
12:30 1027 30.33 856 25.28 17.4 63.3 52 7.6 45.6
12:35 1027 30.33 856 25.28 17.7 63.9 51 7.4 45.4
12:40 1027 30.33 856 25.28 18.7 65.7 46 7 44.6
12:45 1027 30.33 856 25.28 19.1 66.4 45 7.1 44.7
12:50 1027 30.33 856 25.28 19 66.1 45 7 44.6
12:55 1027 30.33 856 25.28 19.2 66.5 44 6.9 44.5
13:00 1027 30.33 856 25.28 19.2 66.5 43 6.5 43.6
13:05 1027 30.33 856 25.28 19.2 66.5 45 7.2 44.9
13:10 1027 30.33 856 25.28 19.3 66.7 45 7.1 44.8
13:15 1027 30.33 856 25.28 19.7 67.5 43 6.9 44.4
13:20 1027 30.33 856 25.28 19.2 66.5 45 7.1 44.8
13:25 1027 30.33 856 25.28 19.1 66.4 43 6.5 43.8
13:30 1027 30.33 856 25.28 19.8 67.6 43 7.1 44.8
13:35 1027 30.33 856 25.28 20 68 43 7.2 44.9
13:40 1027 30.33 856 25.28 18.8 65.8 45 6.6 43.9
13:45 1027 30.33 856 25.28 18.8 65.8 43 6.2 43.2
13:50 1027 30.33 856 25.28 19.9 67.7 39 5.7 42.3
13:55 1027 30.33 856 25.28 19.7 67.5 42 6.6 43.8
14:00 1027 30.33 856 25.28 19.2 66.6 43 6.6 43.8
14:05 1027 30.33 856 25.28 19.4 66.9 42 6.1 43.1
14:10 1027 30.33 856 25.28 19.3 66.8 43 6.7 44
14:15 1027 30.33 856 25.28 19.4 66.9 43 6.5 43.8
14:20 1027 30.33 856 25.28 19.3 66.7 42 6.2 43.1
14:25 1027 30.33 856 25.28 18.5 65.2 46 6.7 44
14:30 1027 30.33 856 25.28 17.6 63.7 47 6.3 43.4
14:35 1027 30.33 856 25.28 17.7 63.8 47 6.5 43.6
14:40 1026 30.3 856 25.28 17.4 63.3 47 6.2 43.1
14:45 1026 30.3 856 25.28 17.6 63.7 47 6.4 43.4
14:50 1026 30.3 856 25.28 17.7 63.9 46 6.1 43
14:55 1026 30.3 856 25.28 18.2 64.7 46 6.5 43.8
15:00 1026 30.3 856 25.28 17.9 64.2 46 6.4 43.4
15:05 1026 30.3 856 25.28 18.1 64.6 47 6.8 44.2
15:10 1026 30.3 856 25.28 18.5 65.4 46 6.7 44
15:15 1026 30.3 856 25.28 19.1 66.4 43 6.3 43.3
15:20 1026 30.3 856 25.28 19.8 67.6 41 6.2 43.1
15:25 1026 30.3 856 25.28 19.9 67.9 41 6.5 43.8
15:30 1026 30.3 856 25.28 19.4 67 42 6.2 43.1
15:35 1026 30.3 856 25.28 19.6 67.2 42 6.5 43.7
15:40 1026 30.3 856 25.28 19.3 66.7 42 6.3 43.3
15:45 1026 30.3 856 25.28 19.3 66.8 42 6.4 43.5
15:50 1026 30.3 856 25.28 19.7 67.5 42 6.4 43.6
15:55 1026 30.3 856 25.28 19.3 66.7 44 6.8 44.2
16:00 1026 30.3 856 25.28 18.6 65.4 46 6.8 44.2
16:05 1026 30.3 856 25.28 18.4 65.1 45 6.5 43.7
16:10 1026 30.3 856 25.28 18.6 65.4 45 6.6 43.8
16:15 1026 30.3 856 25.28 19.3 66.8 43 6.7 44.1
16:20 1026 30.3 856 25.28 19.1 66.4 44 6.6 44
16:25 1026 30.3 856 25.28 19 66.2 45 6.8 44.2
16:30 1026 30.3 856 25.28 18.6 65.5 45 6.6 43.9
16:35 1026 30.3 856 25.28 18.3 65 46 6.7 44.1
16:40 1026 30.3 856 25.28 18 64.4 46 6.5 43.6
16:45 1026 30.3 856 25.28 18.5 65.3 44 6.3 43.3
16:50 1026 30.3 856 25.28 18.7 65.6 45 6.8 44.2
16:55 1026 30.3 856 25.28 18.6 65.5 45 6.6 43.8
17:00 1027 30.33 856 25.28 18.2 64.8 47 6.7 44.1
17:05 1027 30.33 856 25.28 18.1 64.5 46 6.4 43.6
17:10 1027 30.33 856 25.28 18.1 64.5 47 6.7 44
17:15 1027 30.33 856 25.28 17.7 63.8 49 6.8 44.3
17:20 1027 30.33 856 25.28 17.3 63.1 50 6.8 44.3
17:25 1027 30.33 856 25.28 17.1 62.7 50 6.7 44.1
17:30 1027 30.33 856 25.28 16.9 62.3 50 6.6 43.8
17:35 1027 30.33 856 25.28 16.8 62.2 52 6.9 44.4
17:40 1027 30.33 856 25.28 16.6 61.8 52 6.9 44.4
17:45 1027 30.33 856 25.28 16.4 61.5 52 6.6 43.9
17:50 1027 30.33 856 25.28 16.5 61.6 51 6.5 43.7
17:55 1027 30.33 856 25.28 16.5 61.6 51 6.5 43.6
18:00 1027 30.33 856 25.28 16.5 61.7 51 6.5 43.7
18:05 1026 30.3 856 25.28 16.4 61.5 52 6.6 43.9
18:10 1026 30.3 856 25.28 16.1 61 53 6.7 44.1
18:15 1027 30.33 856 25.28 15.9 60.6 58 7.7 45.9
18:20 1027 30.33 856 25.28 15.4 59.6 60 7.8 46
18:25 1027 30.33 856 25.28 14.7 58.5 64 8.1 46.6
18:30 1027 30.33 856 25.28 14.1 57.4 65 7.7 45.8
18:35 1027 30.33 856 25.28 14.1 57.3 65 7.6 45.6
18:40 1027 30.33 856 25.28 14.1 57.4 64 7.5 45.5
18:45 1027 30.33 856 25.28 13.9 57.1 66 7.7 45.9
18:50 1027 30.33 856 25.28 13.5 56.2 69 7.9 46.3
18:55 1027 30.33 856 25.28 12.9 55.1 70 7.7 45.8
19:00 1027 30.33 856 25.28 12.6 54.7 70 7.4 45.3
19:05 1027 30.33 856 25.28 12.6 54.8 70 7.3 45.2
19:10 1027 30.33 856 25.28 12.8 55.1 69 7.4 45.4
19:15 1027 30.33 856 25.28 12.7 54.8 71 7.6 45.6
19:20 1027 30.33 856 25.28 12.4 54.3 71 7.4 45.2
19:25 1027 30.33 856 25.28 12.3 54.2 70 7 44.7
19:30 1027 30.33 856 25.28 12.4 54.4 69 7 44.7
19:35 1027 30.33 856 25.28 12.4 54.3 69 6.9 44.4
19:40 1027 30.33 856 25.28 12.5 54.6 68 6.9 44.4
19:45 1027 30.33 856 25.28 12.6 54.7 68 7 44.5
19:50 1027 30.33 856 25.28 12.6 54.7 68 7 44.6
19:55 1027 30.33 856 25.28 12.6 54.6 68 6.9 44.4
20:00 1027 30.33 856 25.28 12.4 54.3 69 6.8 44.3
20:05 1027 30.33 856 25.28 12.1 53.8 69 6.7 44.1
20:10 1027 30.33 856 25.28 12 53.5 69 6.6 43.9
20:15 1027 30.33 856 25.28 12 53.6 69 6.5 43.8
20:20 1027 30.33 856 25.28 12.1 53.7 68 6.4 43.6
20:25 1027 30.33 856 25.28 12.2 54 68 6.5 43.7
20:30 1027 30.33 856 25.28 12.2 53.9 67 6.4 43.5
20:35 1027 30.33 856 25.28 12.2 54 68 6.4 43.6
20:40 1027 30.33 856 25.28 12.2 54 67 6.3 43.4
20:45 1027 30.33 856 25.28 12.3 54.1 66 6.3 43.3
20:50 1027 30.33 856 25.28 12.2 54 67 6.4 43.5
20:55 1027 30.33 856 25.28 12 53.6 68 6.4 43.5
21:00 1027 30.33 856 25.28 11.9 53.5 69 6.4 43.5
21:05 1027 30.33 856 25.28 11.8 53.3 70 6.5 43.7
21:10 1027 30.33 856 25.28 11.7 53.1 70 6.5 43.7
21:15 1027 30.33 856 25.28 11.5 52.6 71 6.5 43.7
21:20 1027 30.33 856 25.28 11.2 52.2 72 6.4 43.5
21:25 1027 30.33 856 25.28 11.2 52.1 72 6.3 43.4
21:30 1027 30.33 856 25.28 11.3 52.4 71 6.2 43.2
21:35 1027 30.33 856 25.28 11.5 52.6 71 6.3 43.4
21:40 1027 30.33 856 25.28 11.3 52.4 71 6.3 43.3
21:45 1027 30.33 856 25.28 11.4 52.5 70 6.1 43
21:50 1027 30.33 856 25.28 11.4 52.5 70 6.1 43
21:55 1027 30.33 856 25.28 11.3 52.4 70 6.1 43
22:00 1027 30.33 856 25.28 11.3 52.3 70 6.1 43
22:05 1027 30.33 856 25.28 11.2 52.1 71 6.1 43
22:10 1027 30.33 856 25.28 10.9 51.7 72 6.1 42.9
22:15 1027 30.33 856 25.28 10.8 51.4 72 5.9 42.6
22:20 1027 30.33 856 25.28 10.9 51.6 71 5.8 42.4
22:25 1027 30.33 856 25.28 10.8 51.5 72 5.9 42.7
22:30 1027 30.33 856 25.28 10.8 51.5 71 5.9 42.6
22:35 1027 30.33 856 25.28 10.8 51.4 72 6 42.8
22:40 1027 30.33 856 25.28 10.8 51.4 72 6 42.8
22:45 1027 30.33 856 25.28 10.9 51.7 71 5.9 42.7
22:50 1027 30.33 856 25.28 10.9 51.6 71 5.9 42.7
22:55 1027 30.33 856 25.28 10.8 51.5 71 5.9 42.6
23:00 1027 30.33 856 25.28 10.7 51.2 72 5.9 42.6
23:05 1027 30.33 856 25.28 10.6 51.2 72 5.8 42.4
23:10 1027 30.33 856 25.28 10.6 51.1 72 5.8 42.4
23:15 1027 30.33 856 25.28 10.6 51.1 72 5.7 42.2
23:20 1027 30.33 856 25.28 10.4 50.7 73 5.7 42.3
23:25 1027 30.33 856 25.28 10.2 50.4 72 5.5 41.8
23:30 1026 30.3 856 25.28 10.5 50.8 71 5.4 41.7
23:35 1026 30.3 856 25.28 10.9 51.7 68 5.4 41.7
23:40 1026 30.3 856 25.28 11.2 52.2 68 5.7 42.2
23:45 1026 30.3 856 25.28 11.2 52.1 68 5.5 41.9
23:50 1026 30.3 856 25.28 11 51.9 69 5.6 42.1
23:55 1026 30.3 856 25.28 10.9 51.6 69 5.5 41.9
24:00 1026 30.3 856 25.28 11 51.8 68 5.4 41.7